Main page
METAR-TAF:

METAR-TAF

Airports :

Durham Tees Valley Airport

Durham, England

latitude: 54-31N, longitude: 001-25W, elevation: 37 m

Current weather observation

The report was made 25 minutes ago, at 08:50 UTC
Wind 7 kt from the West, varying between Southwest and West/Northwest
Temperature 8°C
Humidity 71%
Pressure 1032 hPa
Visibility 10 km or more
Broken clouds at a height of 3600 ft

METAR: EGNV 260850Z 27007KT 230V300 9999 BKN036 08/03 Q1032

Time: 09:15 (09:15 UTC)

Forecast

The report was made 1 hour and 15 minutes ago, at 08:00 UTC
Forecast valid from 26 at 09 UTC to 26 at 18 UTC
Wind 5 kt from the West
Visibility 10 km or more
Scattered clouds at a height of 4500 ft

TAF: EGNV 260800Z 2609/2618 26005KT 9999 SCT045

Weather observations and forecasts of more than 4000 airports (METAR and TAF reports).

The available stations are represented by yellow and red dots on the map.

Hover mouse over dot to see the name of the station.

Then click to see weather observations and forecasts.

To change the map : click on the green buttons with a black cross to zoom in, on the green button with a dash to zoom out, or on the green arrows for adjacent maps.


METAR-TAF: